sensor_id;sensor_type;location;lat;lon;timestamp;P1;durP1;ratioP1;P2;durP2;ratioP2
37063;SDS011;23211;53.912;9.138;2022-10-16T00:02:37;6.53;;;4.57;;
37063;SDS011;23211;53.912;9.138;2022-10-16T00:05:23;7.93;;;5.05;;
37063;SDS011;23211;53.912;9.138;2022-10-16T00:08:10;9.63;;;5.03;;
37063;SDS011;23211;53.912;9.138;2022-10-16T00:11:01;7.50;;;4.82;;
37063;SDS011;23211;53.912;9.138;2022-10-16T00:13:58;7.32;;;4.45;;
37063;SDS011;23211;53.912;9.138;2022-10-16T00:16:45;7.03;;;4.60;;
37063;SDS011;23211;53.912;9.138;2022-10-16T00:19:31;8.05;;;5.47;;
37063;SDS011;23211;53.912;9.138;2022-10-16T00:22:17;8.82;;;4.78;;
37063;SDS011;23211;53.912;9.138;2022-10-16T00:25:02;7.63;;;5.28;;
37063;SDS011;23211;53.912;9.138;2022-10-16T00:27:48;8.65;;;4.60;;
37063;SDS011;23211;53.912;9.138;2022-10-16T00:30:37;8.45;;;4.53;;
37063;SDS011;23211;53.912;9.138;2022-10-16T00:33:23;9.05;;;4.68;;
37063;SDS011;23211;53.912;9.138;2022-10-16T00:36:10;6.70;;;4.30;;
37063;SDS011;23211;53.912;9.138;2022-10-16T00:38:58;10.48;;;5.40;;
37063;SDS011;23211;53.912;9.138;2022-10-16T00:41:45;10.02;;;4.93;;
37063;SDS011;23211;53.912;9.138;2022-10-16T00:44:51;7.78;;;4.45;;
37063;SDS011;23211;53.912;9.138;2022-10-16T00:47:39;9.98;;;4.20;;
37063;SDS011;23211;53.912;9.138;2022-10-16T00:50:28;6.78;;;4.20;;
37063;SDS011;23211;53.912;9.138;2022-10-16T00:53:16;8.60;;;5.40;;
37063;SDS011;23211;53.912;9.138;2022-10-16T00:56:03;8.48;;;4.80;;
37063;SDS011;23211;53.912;9.138;2022-10-16T00:58:49;8.57;;;4.45;;
37063;SDS011;23211;53.912;9.138;2022-10-16T01:01:35;9.00;;;5.18;;
37063;SDS011;23211;53.912;9.138;2022-10-16T01:04:21;10.40;;;4.43;;
37063;SDS011;23211;53.912;9.138;2022-10-16T01:13:41;10.20;;;4.93;;
37063;SDS011;23211;53.912;9.138;2022-10-16T01:16:33;5.90;;;4.30;;
37063;SDS011;23211;53.912;9.138;2022-10-16T01:19:27;8.52;;;3.90;;
37063;SDS011;23211;53.912;9.138;2022-10-16T01:28:56;7.55;;;4.10;;
37063;SDS011;23211;53.912;9.138;2022-10-16T01:31:50;5.00;;;3.50;;
37063;SDS011;23211;53.912;9.138;2022-10-16T01:34:44;9.30;;;4.60;;
37063;SDS011;23211;53.912;9.138;2022-10-16T01:40:24;8.68;;;3.90;;
37063;SDS011;23211;53.912;9.138;2022-10-16T01:43:16;6.40;;;3.88;;
37063;SDS011;23211;53.912;9.138;2022-10-16T01:46:09;8.40;;;3.78;;
37063;SDS011;23211;53.912;9.138;2022-10-16T01:48:55;7.10;;;3.65;;
37063;SDS011;23211;53.912;9.138;2022-10-16T01:51:43;5.70;;;3.95;;
37063;SDS011;23211;53.912;9.138;2022-10-16T01:54:33;9.50;;;3.70;;
37063;SDS011;23211;53.912;9.138;2022-10-16T01:57:22;9.95;;;3.60;;
37063;SDS011;23211;53.912;9.138;2022-10-16T02:00:10;6.28;;;3.38;;
37063;SDS011;23211;53.912;9.138;2022-10-16T02:02:59;7.80;;;3.15;;
37063;SDS011;23211;53.912;9.138;2022-10-16T02:05:55;9.65;;;3.55;;
37063;SDS011;23211;53.912;9.138;2022-10-16T02:08:43;7.03;;;3.10;;
37063;SDS011;23211;53.912;9.138;2022-10-16T02:11:29;5.45;;;2.75;;
37063;SDS011;23211;53.912;9.138;2022-10-16T02:14:15;5.93;;;2.90;;
37063;SDS011;23211;53.912;9.138;2022-10-16T02:17:01;5.13;;;3.00;;
37063;SDS011;23211;53.912;9.138;2022-10-16T02:19:48;9.57;;;3.15;;
37063;SDS011;23211;53.912;9.138;2022-10-16T02:22:44;6.35;;;3.10;;
37063;SDS011;23211;53.912;9.138;2022-10-16T02:25:36;5.70;;;2.67;;
37063;SDS011;23211;53.912;9.138;2022-10-16T02:28:31;5.53;;;2.42;;
37063;SDS011;23211;53.912;9.138;2022-10-16T02:31:26;14.07;;;2.67;;
37063;SDS011;23211;53.912;9.138;2022-10-16T02:34:16;9.32;;;2.65;;
37063;SDS011;23211;53.912;9.138;2022-10-16T02:37:06;5.22;;;2.35;;
37063;SDS011;23211;53.912;9.138;2022-10-16T02:39:53;5.03;;;2.47;;
37063;SDS011;23211;53.912;9.138;2022-10-16T02:42:40;6.07;;;2.30;;
37063;SDS011;23211;53.912;9.138;2022-10-16T02:45:35;7.45;;;2.67;;
37063;SDS011;23211;53.912;9.138;2022-10-16T02:48:21;6.45;;;2.72;;
37063;SDS011;23211;53.912;9.138;2022-10-16T02:51:12;7.75;;;2.90;;
37063;SDS011;23211;53.912;9.138;2022-10-16T02:54:07;7.40;;;2.83;;
37063;SDS011;23211;53.912;9.138;2022-10-16T02:56:53;4.13;;;2.20;;
37063;SDS011;23211;53.912;9.138;2022-10-16T02:59:38;4.70;;;2.00;;
37063;SDS011;23211;53.912;9.138;2022-10-16T03:02:24;5.07;;;2.08;;
37063;SDS011;23211;53.912;9.138;2022-10-16T03:05:10;7.05;;;2.20;;
37063;SDS011;23211;53.912;9.138;2022-10-16T03:07:56;7.97;;;2.47;;
37063;SDS011;23211;53.912;9.138;2022-10-16T03:10:43;4.18;;;1.83;;
37063;SDS011;23211;53.912;9.138;2022-10-16T03:13:29;5.65;;;2.10;;
37063;SDS011;23211;53.912;9.138;2022-10-16T03:16:15;5.13;;;2.00;;
37063;SDS011;23211;53.912;9.138;2022-10-16T03:19:00;9.18;;;3.83;;
37063;SDS011;23211;53.912;9.138;2022-10-16T03:21:48;5.20;;;1.77;;
37063;SDS011;23211;53.912;9.138;2022-10-16T03:24:33;5.80;;;1.80;;
37063;SDS011;23211;53.912;9.138;2022-10-16T03:27:19;4.40;;;1.75;;
37063;SDS011;23211;53.912;9.138;2022-10-16T03:30:05;3.97;;;1.70;;
37063;SDS011;23211;53.912;9.138;2022-10-16T03:32:51;7.85;;;2.30;;
37063;SDS011;23211;53.912;9.138;2022-10-16T03:35:39;4.60;;;1.60;;
37063;SDS011;23211;53.912;9.138;2022-10-16T03:38:25;5.65;;;1.92;;
37063;SDS011;23211;53.912;9.138;2022-10-16T03:41:11;7.45;;;1.92;;
37063;SDS011;23211;53.912;9.138;2022-10-16T03:43:56;3.45;;;1.45;;
37063;SDS011;23211;53.912;9.138;2022-10-16T03:46:42;4.07;;;1.50;;
37063;SDS011;23211;53.912;9.138;2022-10-16T03:49:28;7.55;;;1.70;;
37063;SDS011;23211;53.912;9.138;2022-10-16T03:52:14;5.82;;;1.40;;
37063;SDS011;23211;53.912;9.138;2022-10-16T03:54:59;2.80;;;1.17;;
37063;SDS011;23211;53.912;9.138;2022-10-16T03:57:45;5.50;;;2.08;;
37063;SDS011;23211;53.912;9.138;2022-10-16T04:00:31;3.65;;;1.60;;
37063;SDS011;23211;53.912;9.138;2022-10-16T04:03:16;6.07;;;1.50;;
37063;SDS011;23211;53.912;9.138;2022-10-16T04:06:04;4.88;;;1.50;;
37063;SDS011;23211;53.912;9.138;2022-10-16T04:08:50;5.07;;;1.55;;
37063;SDS011;23211;53.912;9.138;2022-10-16T04:11:36;5.47;;;1.42;;
37063;SDS011;23211;53.912;9.138;2022-10-16T04:14:21;7.60;;;2.40;;
37063;SDS011;23211;53.912;9.138;2022-10-16T04:17:07;4.40;;;1.90;;
37063;SDS011;23211;53.912;9.138;2022-10-16T04:19:53;7.00;;;2.00;;
37063;SDS011;23211;53.912;9.138;2022-10-16T04:22:39;7.30;;;2.33;;
37063;SDS011;23211;53.912;9.138;2022-10-16T04:25:25;7.03;;;2.00;;
37063;SDS011;23211;53.912;9.138;2022-10-16T04:28:11;5.68;;;1.63;;
37063;SDS011;23211;53.912;9.138;2022-10-16T04:30:56;4.35;;;1.50;;
37063;SDS011;23211;53.912;9.138;2022-10-16T04:33:42;6.20;;;1.98;;
37063;SDS011;23211;53.912;9.138;2022-10-16T04:36:29;5.40;;;2.05;;
37063;SDS011;23211;53.912;9.138;2022-10-16T04:39:15;3.75;;;1.55;;
37063;SDS011;23211;53.912;9.138;2022-10-16T04:42:01;5.07;;;1.70;;
37063;SDS011;23211;53.912;9.138;2022-10-16T04:44:48;3.40;;;1.30;;
37063;SDS011;23211;53.912;9.138;2022-10-16T04:47:33;6.47;;;1.48;;
37063;SDS011;23211;53.912;9.138;2022-10-16T04:50:19;3.28;;;1.50;;
37063;SDS011;23211;53.912;9.138;2022-10-16T04:53:20;5.53;;;1.45;;
37063;SDS011;23211;53.912;9.138;2022-10-16T04:56:06;4.57;;;1.35;;
37063;SDS011;23211;53.912;9.138;2022-10-16T04:58:52;4.32;;;1.35;;
37063;SDS011;23211;53.912;9.138;2022-10-16T05:01:37;6.38;;;1.65;;
37063;SDS011;23211;53.912;9.138;2022-10-16T05:04:23;2.45;;;1.30;;
37063;SDS011;23211;53.912;9.138;2022-10-16T05:07:09;3.58;;;1.30;;
37063;SDS011;23211;53.912;9.138;2022-10-16T05:09:55;3.50;;;1.25;;
37063;SDS011;23211;53.912;9.138;2022-10-16T05:12:41;4.85;;;1.23;;
37063;SDS011;23211;53.912;9.138;2022-10-16T05:15:26;11.18;;;1.30;;
37063;SDS011;23211;53.912;9.138;2022-10-16T05:18:12;5.03;;;1.48;;
37063;SDS011;23211;53.912;9.138;2022-10-16T05:20:58;4.30;;;1.35;;
37063;SDS011;23211;53.912;9.138;2022-10-16T05:23:44;3.05;;;1.35;;
37063;SDS011;23211;53.912;9.138;2022-10-16T05:26:30;3.17;;;1.25;;
37063;SDS011;23211;53.912;9.138;2022-10-16T05:29:16;3.38;;;1.17;;
37063;SDS011;23211;53.912;9.138;2022-10-16T05:32:01;3.78;;;1.20;;
37063;SDS011;23211;53.912;9.138;2022-10-16T05:34:47;2.05;;;1.00;;
37063;SDS011;23211;53.912;9.138;2022-10-16T05:37:33;2.63;;;1.20;;
37063;SDS011;23211;53.912;9.138;2022-10-16T05:40:19;4.03;;;1.20;;
37063;SDS011;23211;53.912;9.138;2022-10-16T05:43:04;4.57;;;1.30;;
37063;SDS011;23211;53.912;9.138;2022-10-16T05:45:57;2.47;;;1.33;;
37063;SDS011;23211;53.912;9.138;2022-10-16T05:48:43;3.85;;;1.25;;
37063;SDS011;23211;53.912;9.138;2022-10-16T05:51:29;3.47;;;1.27;;
37063;SDS011;23211;53.912;9.138;2022-10-16T05:54:15;5.40;;;1.60;;
37063;SDS011;23211;53.912;9.138;2022-10-16T05:57:01;8.30;;;1.20;;
37063;SDS011;23211;53.912;9.138;2022-10-16T05:59:47;1.98;;;1.10;;
37063;SDS011;23211;53.912;9.138;2022-10-16T06:02:33;2.67;;;1.27;;
37063;SDS011;23211;53.912;9.138;2022-10-16T06:05:19;7.25;;;1.40;;
37063;SDS011;23211;53.912;9.138;2022-10-16T06:08:04;2.42;;;1.02;;
37063;SDS011;23211;53.912;9.138;2022-10-16T06:11:00;5.22;;;1.40;;
37063;SDS011;23211;53.912;9.138;2022-10-16T06:13:57;4.80;;;1.48;;
37063;SDS011;23211;53.912;9.138;2022-10-16T06:16:43;3.22;;;1.38;;
37063;SDS011;23211;53.912;9.138;2022-10-16T06:19:29;2.85;;;1.42;;
37063;SDS011;23211;53.912;9.138;2022-10-16T06:22:16;3.33;;;1.52;;
37063;SDS011;23211;53.912;9.138;2022-10-16T06:25:02;3.88;;;1.52;;
37063;SDS011;23211;53.912;9.138;2022-10-16T06:27:48;3.80;;;1.95;;
37063;SDS011;23211;53.912;9.138;2022-10-16T06:30:34;4.50;;;1.70;;
37063;SDS011;23211;53.912;9.138;2022-10-16T06:33:20;4.78;;;1.80;;
37063;SDS011;23211;53.912;9.138;2022-10-16T06:36:14;4.55;;;1.70;;
37063;SDS011;23211;53.912;9.138;2022-10-16T06:39:02;4.68;;;2.00;;
37063;SDS011;23211;53.912;9.138;2022-10-16T06:41:48;6.07;;;1.77;;
37063;SDS011;23211;53.912;9.138;2022-10-16T06:44:34;3.85;;;1.65;;
37063;SDS011;23211;53.912;9.138;2022-10-16T06:47:20;6.80;;;2.10;;
37063;SDS011;23211;53.912;9.138;2022-10-16T06:50:06;7.50;;;2.40;;
37063;SDS011;23211;53.912;9.138;2022-10-16T06:52:52;4.72;;;2.20;;
37063;SDS011;23211;53.912;9.138;2022-10-16T06:55:38;7.00;;;2.33;;
37063;SDS011;23211;53.912;9.138;2022-10-16T06:58:24;7.25;;;2.35;;
37063;SDS011;23211;53.912;9.138;2022-10-16T07:01:10;7.65;;;2.15;;
37063;SDS011;23211;53.912;9.138;2022-10-16T07:03:56;4.57;;;2.10;;
37063;SDS011;23211;53.912;9.138;2022-10-16T07:06:42;3.13;;;2.05;;
37063;SDS011;23211;53.912;9.138;2022-10-16T07:09:28;5.28;;;2.47;;
37063;SDS011;23211;53.912;9.138;2022-10-16T07:12:14;4.63;;;2.30;;
37063;SDS011;23211;53.912;9.138;2022-10-16T07:14:59;5.88;;;2.75;;
37063;SDS011;23211;53.912;9.138;2022-10-16T07:17:45;6.60;;;2.80;;
37063;SDS011;23211;53.912;9.138;2022-10-16T07:20:31;5.32;;;2.60;;
37063;SDS011;23211;53.912;9.138;2022-10-16T07:23:17;4.38;;;2.63;;
37063;SDS011;23211;53.912;9.138;2022-10-16T07:26:03;8.18;;;3.17;;
37063;SDS011;23211;53.912;9.138;2022-10-16T07:28:49;6.32;;;2.90;;
37063;SDS011;23211;53.912;9.138;2022-10-16T07:31:35;7.47;;;2.80;;
37063;SDS011;23211;53.912;9.138;2022-10-16T07:34:21;5.45;;;2.80;;
37063;SDS011;23211;53.912;9.138;2022-10-16T07:37:07;6.40;;;3.25;;
37063;SDS011;23211;53.912;9.138;2022-10-16T07:39:53;8.73;;;3.17;;
37063;SDS011;23211;53.912;9.138;2022-10-16T07:42:39;4.50;;;3.10;;
37063;SDS011;23211;53.912;9.138;2022-10-16T07:45:25;6.65;;;3.30;;
37063;SDS011;23211;53.912;9.138;2022-10-16T07:48:11;5.25;;;2.88;;
37063;SDS011;23211;53.912;9.138;2022-10-16T07:51:00;8.18;;;3.60;;
37063;SDS011;23211;53.912;9.138;2022-10-16T07:53:48;7.63;;;3.33;;
37063;SDS011;23211;53.912;9.138;2022-10-16T07:56:34;9.85;;;4.30;;
37063;SDS011;23211;53.912;9.138;2022-10-16T07:59:19;7.38;;;3.63;;
37063;SDS011;23211;53.912;9.138;2022-10-16T08:02:05;7.63;;;3.97;;
37063;SDS011;23211;53.912;9.138;2022-10-16T08:04:52;6.32;;;3.85;;
37063;SDS011;23211;53.912;9.138;2022-10-16T08:07:38;6.05;;;3.67;;
37063;SDS011;23211;53.912;9.138;2022-10-16T08:10:25;7.57;;;3.25;;
37063;SDS011;23211;53.912;9.138;2022-10-16T08:13:11;11.27;;;3.85;;
37063;SDS011;23211;53.912;9.138;2022-10-16T08:16:00;5.82;;;3.58;;
37063;SDS011;23211;53.912;9.138;2022-10-16T08:18:46;5.05;;;3.50;;
37063;SDS011;23211;53.912;9.138;2022-10-16T08:21:32;8.35;;;3.70;;
37063;SDS011;23211;53.912;9.138;2022-10-16T08:24:18;10.02;;;3.90;;
37063;SDS011;23211;53.912;9.138;2022-10-16T08:27:03;6.43;;;3.53;;
37063;SDS011;23211;53.912;9.138;2022-10-16T08:29:49;9.05;;;3.97;;
37063;SDS011;23211;53.912;9.138;2022-10-16T08:32:35;8.93;;;3.83;;
37063;SDS011;23211;53.912;9.138;2022-10-16T08:35:21;7.10;;;3.17;;
37063;SDS011;23211;53.912;9.138;2022-10-16T08:38:06;9.98;;;4.32;;
37063;SDS011;23211;53.912;9.138;2022-10-16T08:40:52;6.68;;;3.90;;
37063;SDS011;23211;53.912;9.138;2022-10-16T08:49:55;5.82;;;3.63;;
37063;SDS011;23211;53.912;9.138;2022-10-16T08:52:43;8.13;;;3.92;;
37063;SDS011;23211;53.912;9.138;2022-10-16T08:58:36;9.70;;;3.85;;
37063;SDS011;23211;53.912;9.138;2022-10-16T09:01:22;8.90;;;4.05;;
37063;SDS011;23211;53.912;9.138;2022-10-16T09:07:15;7.67;;;3.17;;
37063;SDS011;23211;53.912;9.138;2022-10-16T09:10:09;6.38;;;3.17;;
37063;SDS011;23211;53.912;9.138;2022-10-16T09:13:23;12.38;;;3.50;;
37063;SDS011;23211;53.912;9.138;2022-10-16T09:19:06;8.75;;;3.17;;
37063;SDS011;23211;53.912;9.138;2022-10-16T09:22:04;6.63;;;2.90;;
37063;SDS011;23211;53.912;9.138;2022-10-16T09:25:01;9.65;;;3.00;;
37063;SDS011;23211;53.912;9.138;2022-10-16T09:27:57;6.65;;;2.85;;
37063;SDS011;23211;53.912;9.138;2022-10-16T09:30:44;5.95;;;2.63;;
37063;SDS011;23211;53.912;9.138;2022-10-16T09:33:34;8.02;;;2.72;;
37063;SDS011;23211;53.912;9.138;2022-10-16T09:36:23;5.18;;;2.63;;
37063;SDS011;23211;53.912;9.138;2022-10-16T09:39:12;8.23;;;2.72;;
37063;SDS011;23211;53.912;9.138;2022-10-16T09:41:58;8.95;;;2.80;;
37063;SDS011;23211;53.912;9.138;2022-10-16T09:44:48;4.93;;;2.78;;
37063;SDS011;23211;53.912;9.138;2022-10-16T09:47:36;8.07;;;2.95;;
37063;SDS011;23211;53.912;9.138;2022-10-16T09:50:27;8.35;;;2.95;;
37063;SDS011;23211;53.912;9.138;2022-10-16T09:53:14;5.85;;;2.53;;
37063;SDS011;23211;53.912;9.138;2022-10-16T09:56:02;4.63;;;2.30;;
37063;SDS011;23211;53.912;9.138;2022-10-16T09:58:52;10.98;;;2.70;;
37063;SDS011;23211;53.912;9.138;2022-10-16T10:01:46;7.22;;;2.22;;
37063;SDS011;23211;53.912;9.138;2022-10-16T10:04:42;5.93;;;2.28;;
37063;SDS011;23211;53.912;9.138;2022-10-16T10:07:35;6.00;;;1.90;;
37063;SDS011;23211;53.912;9.138;2022-10-16T10:10:28;10.98;;;2.15;;
37063;SDS011;23211;53.912;9.138;2022-10-16T10:13:17;5.80;;;2.17;;
37063;SDS011;23211;53.912;9.138;2022-10-16T10:16:05;9.43;;;2.40;;
37063;SDS011;23211;53.912;9.138;2022-10-16T10:18:57;8.60;;;2.42;;
37063;SDS011;23211;53.912;9.138;2022-10-16T10:21:44;8.02;;;2.45;;
37063;SDS011;23211;53.912;9.138;2022-10-16T10:24:30;5.72;;;2.10;;
37063;SDS011;23211;53.912;9.138;2022-10-16T10:27:16;7.55;;;2.03;;
37063;SDS011;23211;53.912;9.138;2022-10-16T10:45:22;5.15;;;1.60;;
37063;SDS011;23211;53.912;9.138;2022-10-16T10:51:05;4.88;;;1.55;;
37063;SDS011;23211;53.912;9.138;2022-10-16T10:54:05;10.20;;;1.70;;
37063;SDS011;23211;53.912;9.138;2022-10-16T11:00:22;3.83;;;1.48;;
37063;SDS011;23211;53.912;9.138;2022-10-16T11:03:21;10.90;;;1.80;;
37063;SDS011;23211;53.912;9.138;2022-10-16T11:06:16;12.65;;;1.92;;
37063;SDS011;23211;53.912;9.138;2022-10-16T11:09:11;3.17;;;1.25;;
37063;SDS011;23211;53.912;9.138;2022-10-16T11:15:07;6.68;;;1.70;;
37063;SDS011;23211;53.912;9.138;2022-10-16T11:21:17;9.57;;;1.60;;
37063;SDS011;23211;53.912;9.138;2022-10-16T11:24:10;10.52;;;1.67;;
37063;SDS011;23211;53.912;9.138;2022-10-16T11:27:07;11.13;;;1.80;;
37063;SDS011;23211;53.912;9.138;2022-10-16T11:29:59;3.65;;;1.40;;
37063;SDS011;23211;53.912;9.138;2022-10-16T11:45:24;5.20;;;1.67;;
37063;SDS011;23211;53.912;9.138;2022-10-16T11:48:38;10.70;;;2.42;;
37063;SDS011;23211;53.912;9.138;2022-10-16T11:51:36;9.70;;;1.85;;
37063;SDS011;23211;53.912;9.138;2022-10-16T11:57:31;8.10;;;1.75;;
37063;SDS011;23211;53.912;9.138;2022-10-16T12:01:03;8.57;;;2.45;;
37063;SDS011;23211;53.912;9.138;2022-10-16T12:03:40;9.30;;;2.05;;
37063;SDS011;23211;53.912;9.138;2022-10-16T12:09:29;7.50;;;2.10;;
37063;SDS011;23211;53.912;9.138;2022-10-16T12:15:22;9.88;;;2.10;;
37063;SDS011;23211;53.912;9.138;2022-10-16T12:18:22;9.52;;;1.70;;
37063;SDS011;23211;53.912;9.138;2022-10-16T12:21:10;6.68;;;1.45;;
37063;SDS011;23211;53.912;9.138;2022-10-16T12:24:00;11.00;;;2.10;;
37063;SDS011;23211;53.912;9.138;2022-10-16T12:26:50;7.75;;;2.17;;
37063;SDS011;23211;53.912;9.138;2022-10-16T12:29:38;7.00;;;1.80;;
37063;SDS011;23211;53.912;9.138;2022-10-16T12:32:31;11.70;;;2.35;;
37063;SDS011;23211;53.912;9.138;2022-10-16T12:35:20;9.20;;;1.85;;
37063;SDS011;23211;53.912;9.138;2022-10-16T12:38:15;9.20;;;2.38;;
37063;SDS011;23211;53.912;9.138;2022-10-16T12:41:05;6.40;;;2.00;;
37063;SDS011;23211;53.912;9.138;2022-10-16T12:43:57;8.02;;;2.08;;
37063;SDS011;23211;53.912;9.138;2022-10-16T12:46:46;10.23;;;2.20;;
37063;SDS011;23211;53.912;9.138;2022-10-16T12:49:36;9.18;;;2.17;;
37063;SDS011;23211;53.912;9.138;2022-10-16T12:52:28;12.98;;;2.75;;
37063;SDS011;23211;53.912;9.138;2022-10-16T12:55:20;7.60;;;1.88;;
37063;SDS011;23211;53.912;9.138;2022-10-16T12:58:17;12.57;;;3.30;;
37063;SDS011;23211;53.912;9.138;2022-10-16T13:01:39;9.18;;;2.88;;
37063;SDS011;23211;53.912;9.138;2022-10-16T13:17:33;9.23;;;2.75;;
37063;SDS011;23211;53.912;9.138;2022-10-16T13:23:31;12.02;;;4.57;;
37063;SDS011;23211;53.912;9.138;2022-10-16T13:26:29;12.25;;;3.72;;
37063;SDS011;23211;53.912;9.138;2022-10-16T13:29:22;11.27;;;4.00;;
37063;SDS011;23211;53.912;9.138;2022-10-16T13:32:09;9.50;;;3.08;;
37063;SDS011;23211;53.912;9.138;2022-10-16T13:34:59;7.90;;;2.28;;
37063;SDS011;23211;53.912;9.138;2022-10-16T13:37:46;8.18;;;2.20;;
37063;SDS011;23211;53.912;9.138;2022-10-16T13:40:32;11.43;;;1.92;;
37063;SDS011;23211;53.912;9.138;2022-10-16T13:43:21;10.00;;;2.13;;
37063;SDS011;23211;53.912;9.138;2022-10-16T13:49:16;8.38;;;1.95;;
37063;SDS011;23211;53.912;9.138;2022-10-16T13:52:02;16.45;;;2.40;;
37063;SDS011;23211;53.912;9.138;2022-10-16T13:54:48;9.73;;;2.40;;
37063;SDS011;23211;53.912;9.138;2022-10-16T13:57:34;9.00;;;1.67;;
37063;SDS011;23211;53.912;9.138;2022-10-16T14:00:24;14.25;;;2.35;;
37063;SDS011;23211;53.912;9.138;2022-10-16T14:03:15;10.52;;;1.75;;
37063;SDS011;23211;53.912;9.138;2022-10-16T14:06:02;13.73;;;2.60;;
37063;SDS011;23211;53.912;9.138;2022-10-16T14:09:36;11.48;;;2.10;;
37063;SDS011;23211;53.912;9.138;2022-10-16T14:12:10;7.18;;;1.63;;
37063;SDS011;23211;53.912;9.138;2022-10-16T14:14:57;27.40;;;10.25;;
37063;SDS011;23211;53.912;9.138;2022-10-16T14:17:45;10.50;;;3.83;;
37063;SDS011;23211;53.912;9.138;2022-10-16T14:20:34;10.95;;;3.15;;
37063;SDS011;23211;53.912;9.138;2022-10-16T14:23:30;9.80;;;2.40;;
37063;SDS011;23211;53.912;9.138;2022-10-16T14:26:22;16.95;;;3.28;;
37063;SDS011;23211;53.912;9.138;2022-10-16T14:29:13;15.48;;;2.88;;
37063;SDS011;23211;53.912;9.138;2022-10-16T14:32:04;15.32;;;2.40;;
37063;SDS011;23211;53.912;9.138;2022-10-16T14:34:53;12.05;;;2.85;;
37063;SDS011;23211;53.912;9.138;2022-10-16T14:37:39;11.52;;;2.67;;
37063;SDS011;23211;53.912;9.138;2022-10-16T14:40:32;11.02;;;2.45;;
37063;SDS011;23211;53.912;9.138;2022-10-16T14:43:21;16.23;;;2.80;;
37063;SDS011;23211;53.912;9.138;2022-10-16T14:49:23;14.77;;;2.85;;
37063;SDS011;23211;53.912;9.138;2022-10-16T14:52:10;14.65;;;2.50;;
37063;SDS011;23211;53.912;9.138;2022-10-16T14:54:57;18.15;;;3.00;;
37063;SDS011;23211;53.912;9.138;2022-10-16T14:57:43;11.93;;;2.92;;
37063;SDS011;23211;53.912;9.138;2022-10-16T15:00:30;9.45;;;2.35;;
37063;SDS011;23211;53.912;9.138;2022-10-16T15:03:16;19.25;;;3.28;;
37063;SDS011;23211;53.912;9.138;2022-10-16T15:06:02;14.45;;;2.97;;
37063;SDS011;23211;53.912;9.138;2022-10-16T15:08:48;15.55;;;3.30;;
37063;SDS011;23211;53.912;9.138;2022-10-16T15:11:34;15.27;;;3.10;;
37063;SDS011;23211;53.912;9.138;2022-10-16T15:14:20;16.35;;;3.45;;
37063;SDS011;23211;53.912;9.138;2022-10-16T15:17:08;22.70;;;3.60;;
37063;SDS011;23211;53.912;9.138;2022-10-16T15:19:55;13.65;;;2.60;;
37063;SDS011;23211;53.912;9.138;2022-10-16T15:22:41;14.18;;;2.83;;
37063;SDS011;23211;53.912;9.138;2022-10-16T15:25:31;15.02;;;3.35;;
37063;SDS011;23211;53.912;9.138;2022-10-16T15:28:23;13.27;;;2.90;;
37063;SDS011;23211;53.912;9.138;2022-10-16T15:31:11;19.63;;;3.53;;
37063;SDS011;23211;53.912;9.138;2022-10-16T15:33:56;11.82;;;2.92;;
37063;SDS011;23211;53.912;9.138;2022-10-16T15:36:49;16.02;;;3.17;;
37063;SDS011;23211;53.912;9.138;2022-10-16T15:39:35;17.45;;;3.45;;
37063;SDS011;23211;53.912;9.138;2022-10-16T15:42:21;16.60;;;3.85;;
37063;SDS011;23211;53.912;9.138;2022-10-16T15:45:07;28.45;;;4.57;;
37063;SDS011;23211;53.912;9.138;2022-10-16T15:47:54;22.23;;;4.30;;
37063;SDS011;23211;53.912;9.138;2022-10-16T15:50:40;34.00;;;8.07;;
37063;SDS011;23211;53.912;9.138;2022-10-16T15:53:27;25.42;;;4.97;;
37063;SDS011;23211;53.912;9.138;2022-10-16T15:56:13;18.27;;;3.80;;
37063;SDS011;23211;53.912;9.138;2022-10-16T15:59:01;31.80;;;3.95;;
37063;SDS011;23211;53.912;9.138;2022-10-16T16:01:48;19.10;;;3.50;;
37063;SDS011;23211;53.912;9.138;2022-10-16T16:04:33;19.17;;;4.10;;
37063;SDS011;23211;53.912;9.138;2022-10-16T16:07:19;25.83;;;3.60;;
37063;SDS011;23211;53.912;9.138;2022-10-16T16:10:06;29.10;;;3.38;;
37063;SDS011;23211;53.912;9.138;2022-10-16T16:12:53;23.75;;;3.35;;
37063;SDS011;23211;53.912;9.138;2022-10-16T16:15:39;18.38;;;3.90;;
37063;SDS011;23211;53.912;9.138;2022-10-16T16:18:26;17.10;;;3.17;;
37063;SDS011;23211;53.912;9.138;2022-10-16T16:21:12;18.20;;;3.20;;
37063;SDS011;23211;53.912;9.138;2022-10-16T16:23:58;20.98;;;3.78;;
37063;SDS011;23211;53.912;9.138;2022-10-16T16:26:45;17.75;;;3.08;;
37063;SDS011;23211;53.912;9.138;2022-10-16T16:29:30;21.77;;;3.63;;
37063;SDS011;23211;53.912;9.138;2022-10-16T16:32:16;19.10;;;3.28;;
37063;SDS011;23211;53.912;9.138;2022-10-16T16:35:02;22.45;;;3.28;;
37063;SDS011;23211;53.912;9.138;2022-10-16T16:37:49;16.02;;;2.90;;
37063;SDS011;23211;53.912;9.138;2022-10-16T16:40:34;25.52;;;4.25;;
37063;SDS011;23211;53.912;9.138;2022-10-16T16:43:26;20.92;;;3.80;;
37063;SDS011;23211;53.912;9.138;2022-10-16T16:46:13;17.45;;;3.85;;
37063;SDS011;23211;53.912;9.138;2022-10-16T16:49:00;16.90;;;4.10;;
37063;SDS011;23211;53.912;9.138;2022-10-16T16:51:47;18.02;;;5.35;;
37063;SDS011;23211;53.912;9.138;2022-10-16T16:54:32;20.85;;;7.07;;
37063;SDS011;23211;53.912;9.138;2022-10-16T16:57:19;28.60;;;6.50;;
37063;SDS011;23211;53.912;9.138;2022-10-16T17:00:05;27.08;;;5.93;;
37063;SDS011;23211;53.912;9.138;2022-10-16T17:02:51;18.92;;;4.53;;
37063;SDS011;23211;53.912;9.138;2022-10-16T17:05:37;21.77;;;3.80;;
37063;SDS011;23211;53.912;9.138;2022-10-16T17:08:23;15.32;;;3.05;;
37063;SDS011;23211;53.912;9.138;2022-10-16T17:11:13;25.20;;;3.92;;
37063;SDS011;23211;53.912;9.138;2022-10-16T17:14:01;22.95;;;3.70;;
37063;SDS011;23211;53.912;9.138;2022-10-16T17:16:47;18.52;;;3.83;;
37063;SDS011;23211;53.912;9.138;2022-10-16T17:19:34;21.77;;;3.45;;
37063;SDS011;23211;53.912;9.138;2022-10-16T17:22:20;21.95;;;4.93;;
37063;SDS011;23211;53.912;9.138;2022-10-16T17:25:06;24.27;;;4.35;;
37063;SDS011;23211;53.912;9.138;2022-10-16T17:27:52;20.60;;;4.30;;
37063;SDS011;23211;53.912;9.138;2022-10-16T17:30:38;20.08;;;4.35;;
37063;SDS011;23211;53.912;9.138;2022-10-16T17:33:25;21.15;;;4.35;;
37063;SDS011;23211;53.912;9.138;2022-10-16T17:36:11;17.63;;;3.75;;
37063;SDS011;23211;53.912;9.138;2022-10-16T17:38:59;15.82;;;3.95;;
37063;SDS011;23211;53.912;9.138;2022-10-16T17:41:48;23.55;;;3.90;;
37063;SDS011;23211;53.912;9.138;2022-10-16T17:44:34;14.15;;;3.20;;
37063;SDS011;23211;53.912;9.138;2022-10-16T17:47:20;14.25;;;2.72;;
37063;SDS011;23211;53.912;9.138;2022-10-16T17:50:06;16.63;;;3.58;;
37063;SDS011;23211;53.912;9.138;2022-10-16T17:52:52;16.40;;;3.97;;
37063;SDS011;23211;53.912;9.138;2022-10-16T17:55:38;15.45;;;3.10;;
37063;SDS011;23211;53.912;9.138;2022-10-16T17:58:25;18.17;;;3.60;;
37063;SDS011;23211;53.912;9.138;2022-10-16T18:01:15;19.15;;;3.30;;
37063;SDS011;23211;53.912;9.138;2022-10-16T18:04:05;68.15;;;29.80;;
37063;SDS011;23211;53.912;9.138;2022-10-16T18:06:56;41.58;;;17.83;;
37063;SDS011;23211;53.912;9.138;2022-10-16T18:09:44;32.40;;;10.77;;
37063;SDS011;23211;53.912;9.138;2022-10-16T18:12:30;23.00;;;6.43;;
37063;SDS011;23211;53.912;9.138;2022-10-16T18:15:16;19.05;;;5.50;;
37063;SDS011;23211;53.912;9.138;2022-10-16T18:18:01;17.80;;;4.85;;
37063;SDS011;23211;53.912;9.138;2022-10-16T18:20:54;16.85;;;3.88;;
37063;SDS011;23211;53.912;9.138;2022-10-16T18:23:44;17.42;;;3.67;;
37063;SDS011;23211;53.912;9.138;2022-10-16T18:26:31;19.70;;;3.88;;
37063;SDS011;23211;53.912;9.138;2022-10-16T18:29:17;15.98;;;3.45;;
37063;SDS011;23211;53.912;9.138;2022-10-16T18:32:03;10.10;;;2.88;;
37063;SDS011;23211;53.912;9.138;2022-10-16T18:34:49;19.77;;;3.92;;